Time;durP1;ratioP1;P1;durP2;ratioP2;P2;SDS_P1;SDS_P2;PMS_P1;PMS_P2;Temp;Humidity;BMP_temperature;BMP_pressure;BME280_temperature;BME280_humidity;BME280_pressure;Samples;Min_cycle;Max_cycle;Signal;HPM_P1;HPM_P2
2021/10/13 00:01:52;;;;;;;6.75;4.93;;;11.10;69.50;;;;;;5053785;28;20120;-78
2021/10/13 00:04:18;;;;;;;7.07;4.88;;;11.00;69.50;;;;;;5054070;28;20471;-79
2021/10/13 00:06:43;;;;;;;7.70;4.78;;;11.00;69.60;;;;;;5053822;28;20389;-78
2021/10/13 00:09:10;;;;;;;5.97;4.47;;;11.00;69.50;;;;;;5053206;28;20032;-78
2021/10/13 00:11:38;;;;;;;8.35;4.00;;;10.90;69.60;;;;;;5053531;28;20033;-77
2021/10/13 00:14:04;;;;;;;5.30;3.85;;;10.90;69.50;;;;;;5053704;28;20025;-77
2021/10/13 00:16:31;;;;;;;4.60;3.33;;;10.90;69.90;;;;;;5053794;28;20036;-74
2021/10/13 00:18:57;;;;;;;5.88;3.97;;;10.90;69.20;;;;;;5053278;28;20040;-77
2021/10/13 00:21:23;;;;;;;5.70;3.90;;;10.90;69.00;;;;;;5053265;28;20025;-78
2021/10/13 00:23:49;;;;;;;4.45;3.70;;;10.90;68.70;;;;;;5053445;28;20036;-77
2021/10/13 00:26:14;;;;;;;6.03;3.65;;;10.90;68.90;;;;;;5053484;28;20381;-77
2021/10/13 00:28:40;;;;;;;10.07;3.65;;;10.90;69.00;;;;;;5053210;28;20103;-77
2021/10/13 00:31:07;;;;;;;8.27;3.30;;;10.90;69.00;;;;;;5053452;28;20474;-78
2021/10/13 00:33:33;;;;;;;5.25;3.45;;;11.00;68.90;;;;;;5053249;28;20021;-78
2021/10/13 00:35:58;;;;;;;9.90;3.70;;;11.00;68.60;;;;;;5053390;28;20027;-78
2021/10/13 00:38:24;;;;;;;9.43;4.30;;;11.00;68.30;;;;;;5053482;28;20052;-80
2021/10/13 00:40:50;;;;;;;6.20;3.83;;;10.90;68.40;;;;;;5053121;28;20025;-74
2021/10/13 00:43:16;;;;;;;5.95;4.32;;;10.90;68.40;;;;;;5053329;28;20059;-76
2021/10/13 00:45:41;;;;;;;6.13;4.10;;;10.80;68.50;;;;;;5053381;28;20420;-78
2021/10/13 00:48:07;;;;;;;8.43;4.72;;;10.80;68.70;;;;;;5052926;28;20104;-78
2021/10/13 00:50:33;;;;;;;7.43;4.82;;;10.80;68.90;;;;;;5052890;28;20025;-77
2021/10/13 00:52:58;;;;;;;7.97;4.97;;;10.70;69.10;;;;;;5053090;28;20035;-78
2021/10/13 00:55:24;;;;;;;7.28;4.68;;;10.70;69.70;;;;;;5053074;28;20017;-78
2021/10/13 00:57:51;;;;;;;7.75;5.10;;;10.70;69.60;;;;;;5051935;28;20342;-79
2021/10/13 01:00:21;;;;;;;6.30;4.40;;;10.70;69.90;;;;;;5049927;28;20443;-79
2021/10/13 01:03:10;;;;;;;6.20;4.40;;;10.70;70.00;;;;;;5050403;28;20132;-79
2021/10/13 01:05:51;;;;;;;6.07;4.20;;;10.70;70.10;;;;;;5051995;28;20025;-78
2021/10/13 01:08:25;;;;;;;9.30;4.53;;;10.70;69.90;;;;;;5053022;28;20048;-78
2021/10/13 01:11:20;;;;;;;6.82;4.35;;;10.70;69.80;;;;;;5052946;28;20029;-78
2021/10/13 01:14:04;;;;;;;6.28;4.15;;;10.70;69.90;;;;;;5052463;28;20040;-79
2021/10/13 01:16:42;;;;;;;7.53;4.88;;;10.70;69.90;;;;;;5052689;28;20385;-78
2021/10/13 01:19:25;;;;;;;6.35;4.85;;;10.60;69.90;;;;;;5052798;28;20021;-79
2021/10/13 01:22:12;;;;;;;7.88;4.68;;;10.60;70.10;;;;;;5052321;28;20091;-78
2021/10/13 01:25:02;;;;;;;7.53;5.65;;;10.60;69.90;;;;;;5052451;28;20469;-79
2021/10/13 01:27:41;;;;;;;8.05;5.30;;;10.60;70.00;;;;;;5052926;28;20028;-77
2021/10/13 01:30:07;;;;;;;9.55;6.00;;;10.60;70.00;;;;;;5052558;28;20108;-79
2021/10/13 01:32:37;;;;;;;9.07;6.50;;;10.60;70.10;;;;;;5052644;28;20029;-77
2021/10/13 01:35:06;;;;;;;8.63;5.70;;;10.60;70.10;;;;;;5052384;28;20075;-78
2021/10/13 01:37:49;;;;;;;8.18;5.90;;;10.50;70.30;;;;;;5052637;28;20389;-78
2021/10/13 01:40:17;;;;;;;8.85;6.00;;;10.50;70.40;;;;;;5052437;28;20077;-77
2021/10/13 01:42:49;;;;;;;7.65;5.53;;;10.50;70.50;;;;;;5052586;28;20025;-78
2021/10/13 01:45:16;;;;;;;7.35;5.57;;;10.40;70.40;;;;;;5052645;28;20025;-78
2021/10/13 01:47:46;;;;;;;11.32;6.03;;;10.40;70.30;;;;;;5052772;28;20426;-78
2021/10/13 01:50:12;;;;;;;7.63;5.43;;;10.40;70.40;;;;;;5052195;28;20028;-77
2021/10/13 01:52:39;;;;;;;8.60;5.60;;;10.30;70.30;;;;;;5052427;28;20048;-77
2021/10/13 01:55:06;;;;;;;12.50;5.33;;;10.30;70.60;;;;;;5052620;28;20044;-78
2021/10/13 01:57:33;;;;;;;9.75;5.40;;;10.30;70.80;;;;;;5052170;28;20025;-78
2021/10/13 02:00:04;;;;;;;7.25;5.28;;;10.30;71.20;;;;;;5053889;28;20096;-78
2021/10/13 02:02:31;;;;;;;9.50;5.40;;;10.30;71.10;;;;;;5056113;28;20481;-78
2021/10/13 02:04:58;;;;;;;9.80;5.20;;;10.40;70.80;;;;;;5056150;28;20024;-77
2021/10/13 02:07:27;;;;;;;6.63;5.38;;;10.40;70.90;;;;;;5054874;28;20024;-78
2021/10/13 02:09:55;;;;;;;8.65;5.63;;;10.30;70.80;;;;;;5055684;28;20029;-78
2021/10/13 02:12:23;;;;;;;9.77;5.03;;;10.30;70.70;;;;;;5055873;28;20102;-78
2021/10/13 02:14:52;;;;;;;6.90;5.25;;;10.30;70.50;;;;;;5056040;28;20024;-78
2021/10/13 02:17:19;;;;;;;8.13;4.65;;;10.30;70.70;;;;;;5055798;28;20386;-78
2021/10/13 02:19:47;;;;;;;9.77;5.25;;;10.30;70.70;;;;;;5055663;28;20025;-75
2021/10/13 02:22:15;;;;;;;7.13;4.80;;;10.30;71.00;;;;;;5055904;28;20466;-77
2021/10/13 02:24:48;;;;;;;7.53;5.13;;;10.20;70.80;;;;;;5055786;28;20025;-78
2021/10/13 02:27:33;;;;;;;9.95;6.53;;;10.20;70.80;;;;;;5054658;28;20056;-78
2021/10/13 02:29:59;;;;;;;10.05;5.32;;;10.20;71.00;;;;;;5056102;28;20541;-78
2021/10/13 02:32:25;;;;;;;6.57;4.47;;;10.20;71.30;;;;;;5055391;28;20202;-76
2021/10/13 02:34:52;;;;;;;9.30;4.80;;;10.20;71.50;;;;;;5055461;28;20071;-78
2021/10/13 02:37:23;;;;;;;7.40;4.73;;;10.20;71.10;;;;;;5055112;28;20036;-79
2021/10/13 02:39:48;;;;;;;7.17;4.97;;;10.20;71.00;;;;;;5054624;28;20063;-79
2021/10/13 02:42:14;;;;;;;6.63;4.32;;;10.20;71.20;;;;;;5055410;28;20061;-78
2021/10/13 02:44:40;;;;;;;7.27;4.17;;;10.20;71.00;;;;;;5055029;28;20037;-77
2021/10/13 02:47:22;;;;;;;7.00;4.25;;;10.20;71.00;;;;;;5054764;28;20025;-78
2021/10/13 02:50:16;;;;;;;6.72;4.57;;;10.20;70.70;;;;;;5054819;28;20028;-78
2021/10/13 02:53:04;;;;;;;8.37;4.90;;;10.20;70.60;;;;;;5055040;28;20044;-77
2021/10/13 02:56:13;;;;;;;7.50;4.63;;;10.10;70.60;;;;;;5055199;28;20029;-78
2021/10/13 02:59:04;;;;;;;11.50;4.35;;;10.10;70.70;;;;;;5051441;28;20104;-78
2021/10/13 03:01:44;;;;;;;6.73;4.40;;;10.10;71.00;;;;;;5051559;28;20144;-78
2021/10/13 03:04:16;;;;;;;8.73;3.97;;;10.10;70.90;;;;;;5054894;28;20447;-78
2021/10/13 03:06:53;;;;;;;7.10;3.80;;;10.10;70.80;;;;;;5054867;28;20488;-75
2021/10/13 03:09:21;;;;;;;6.93;4.27;;;10.10;70.80;;;;;;5055002;28;20029;-79
2021/10/13 03:11:49;;;;;;;5.53;3.73;;;10.00;70.70;;;;;;5054360;28;20060;-76
2021/10/13 03:14:21;;;;;;;6.33;4.20;;;10.10;71.20;;;;;;5054821;28;20032;-73
2021/10/13 03:16:49;;;;;;;8.57;5.00;;;10.00;71.10;;;;;;5055083;28;20718;-76
2021/10/13 03:19:17;;;;;;;8.60;4.30;;;10.00;70.90;;;;;;5054608;28;20029;-76
2021/10/13 03:21:43;;;;;;;5.97;4.40;;;10.00;71.20;;;;;;5054363;28;20017;-77
2021/10/13 03:24:09;;;;;;;7.43;4.40;;;10.00;71.10;;;;;;5054400;28;20067;-77
2021/10/13 03:26:35;;;;;;;7.23;5.03;;;9.90;71.20;;;;;;5054620;28;20029;-77
2021/10/13 03:29:02;;;;;;;9.40;4.70;;;9.90;71.20;;;;;;5054259;28;20018;-75
2021/10/13 03:31:28;;;;;;;10.13;4.40;;;9.90;71.20;;;;;;5054390;28;20396;-79
2021/10/13 03:33:54;;;;;;;8.20;4.70;;;9.90;71.40;;;;;;5054349;28;20017;-78
2021/10/13 03:36:20;;;;;;;5.80;4.57;;;9.80;71.50;;;;;;5054569;28;20500;-79
2021/10/13 03:38:46;;;;;;;7.35;4.30;;;9.80;71.30;;;;;;5055475;28;20021;-77
2021/10/13 03:41:11;;;;;;;5.97;4.50;;;9.80;71.10;;;;;;5054975;28;20036;-77
2021/10/13 03:43:48;;;;;;;7.40;3.83;;;9.70;71.40;;;;;;5054217;28;20299;-78
2021/10/13 03:46:18;;;;;;;9.13;4.03;;;9.70;71.20;;;;;;5054403;28;20071;-77
2021/10/13 03:48:49;;;;;;;6.57;4.10;;;9.70;71.10;;;;;;5054277;28;20032;-78
2021/10/13 03:51:14;;;;;;;6.23;4.40;;;9.70;71.00;;;;;;5054160;28;20112;-78
2021/10/13 03:53:40;;;;;;;5.40;4.10;;;9.70;70.90;;;;;;5054103;28;20116;-78
2021/10/13 03:56:06;;;;;;;5.73;3.60;;;9.70;71.20;;;;;;5054371;28;20072;-78
2021/10/13 03:58:31;;;;;;;7.70;3.67;;;9.70;71.60;;;;;;5053693;28;20032;-78
2021/10/13 04:00:57;;;;;;;9.20;4.23;;;9.70;71.50;;;;;;5052755;28;20041;-78
2021/10/13 04:03:23;;;;;;;11.77;4.00;;;9.70;71.20;;;;;;5053141;28;20133;-78
2021/10/13 04:05:48;;;;;;;10.43;4.33;;;9.70;71.30;;;;;;5054003;28;20028;-77
2021/10/13 04:08:14;;;;;;;8.00;4.73;;;9.70;71.10;;;;;;5051648;28;20036;-79
2021/10/13 04:10:40;;;;;;;5.70;4.23;;;9.70;71.60;;;;;;5052902;28;20029;-78
2021/10/13 04:13:05;;;;;;;6.90;4.27;;;9.70;71.90;;;;;;5053709;28;20061;-78
2021/10/13 04:15:31;;;;;;;7.63;4.50;;;9.70;71.90;;;;;;5053357;28;20100;-80
2021/10/13 04:17:58;;;;;;;5.30;4.00;;;9.80;71.70;;;;;;5053508;28;20072;-79
2021/10/13 04:20:24;;;;;;;9.63;4.33;;;9.80;71.90;;;;;;5053578;28;20188;-78
2021/10/13 04:22:50;;;;;;;6.53;3.97;;;9.80;71.90;;;;;;5051705;28;20119;-80
2021/10/13 04:25:15;;;;;;;6.73;4.03;;;9.70;71.60;;;;;;5053912;28;20090;-78
2021/10/13 04:27:41;;;;;;;6.67;4.33;;;9.70;71.70;;;;;;5052118;28;20021;-72
2021/10/13 04:30:07;;;;;;;10.37;4.63;;;9.70;71.70;;;;;;5052206;28;20025;-78
2021/10/13 04:32:33;;;;;;;5.53;4.07;;;9.70;72.30;;;;;;5052151;28;20036;-78
2021/10/13 04:34:59;;;;;;;6.97;3.67;;;9.70;72.30;;;;;;5051506;28;20025;-78
2021/10/13 04:37:24;;;;;;;4.40;3.20;;;9.70;72.20;;;;;;5052806;28;20028;-79
2021/10/13 04:39:50;;;;;;;5.70;3.83;;;9.70;72.00;;;;;;5052949;28;20485;-78
2021/10/13 04:42:16;;;;;;;6.03;3.90;;;9.70;71.80;;;;;;5051955;28;20046;-80
2021/10/13 04:44:41;;;;;;;8.00;4.10;;;9.70;71.80;;;;;;5052306;28;20343;-80
2021/10/13 04:47:07;;;;;;;12.07;3.67;;;9.70;71.90;;;;;;5052336;28;20107;-80
2021/10/13 04:49:33;;;;;;;8.10;4.33;;;9.70;72.10;;;;;;5052080;28;20029;-81
2021/10/13 04:52:00;;;;;;;7.80;3.77;;;9.60;72.20;;;;;;5051369;28;20420;-79
2021/10/13 04:54:25;;;;;;;6.87;3.67;;;9.60;72.20;;;;;;5052930;28;20025;-74
2021/10/13 04:56:51;;;;;;;9.10;3.80;;;9.60;72.20;;;;;;5053153;28;20040;-78
2021/10/13 04:59:17;;;;;;;8.80;4.07;;;9.60;72.20;;;;;;5052921;28;20021;-79
2021/10/13 05:01:43;;;;;;;7.70;3.80;;;9.60;72.10;;;;;;5052916;28;20457;-79
2021/10/13 05:04:08;;;;;;;9.30;3.60;;;9.60;72.40;;;;;;5053030;28;20417;-78
2021/10/13 05:06:34;;;;;;;9.63;3.80;;;9.60;72.30;;;;;;5053876;28;20033;-78
2021/10/13 05:09:00;;;;;;;5.60;3.10;;;9.60;72.20;;;;;;5052781;28;20111;-78
2021/10/13 05:11:25;;;;;;;7.90;3.77;;;9.60;72.20;;;;;;5052727;28;20068;-79
2021/10/13 05:13:51;;;;;;;8.47;3.63;;;9.60;72.30;;;;;;5052851;28;20029;-80
2021/10/13 05:16:17;;;;;;;7.60;3.87;;;9.60;72.80;;;;;;5052717;28;20025;-78
2021/10/13 05:18:42;;;;;;;7.83;3.70;;;9.60;72.70;;;;;;5052801;28;20385;-79
2021/10/13 05:21:08;;;;;;;6.07;3.70;;;9.60;72.50;;;;;;5052707;28;20108;-79
2021/10/13 05:23:34;;;;;;;7.80;4.03;;;9.60;72.40;;;;;;5052720;28;20036;-80
2021/10/13 05:25:59;;;;;;;7.20;3.83;;;9.70;72.20;;;;;;5053029;28;20053;-78
2021/10/13 05:28:25;;;;;;;8.73;3.57;;;9.60;72.10;;;;;;5052608;28;20036;-79
2021/10/13 05:30:51;;;;;;;6.43;3.67;;;9.70;72.20;;;;;;5052497;28;20413;-78
2021/10/13 05:33:16;;;;;;;10.77;5.00;;;9.60;72.50;;;;;;5053245;28;20028;-78
2021/10/13 05:35:42;;;;;;;8.77;4.00;;;9.60;72.50;;;;;;5056700;28;20036;-79
2021/10/13 05:38:08;;;;;;;5.13;3.73;;;9.70;72.80;;;;;;5056794;28;20488;-79
2021/10/13 05:40:34;;;;;;;9.67;4.50;;;9.70;73.00;;;;;;5056669;28;20111;-77
2021/10/13 05:42:59;;;;;;;9.77;4.10;;;9.70;73.00;;;;;;5056643;28;20029;-79
2021/10/13 05:45:25;;;;;;;16.63;4.47;;;9.80;73.00;;;;;;5056891;28;20021;-79
2021/10/13 05:47:51;;;;;;;12.37;4.20;;;9.80;72.90;;;;;;5056664;28;20029;-78
2021/10/13 05:50:17;;;;;;;7.43;4.40;;;9.80;73.00;;;;;;5056633;28;20029;-79
2021/10/13 05:52:43;;;;;;;9.97;4.50;;;9.90;73.00;;;;;;5056429;28;20064;-78
2021/10/13 05:55:09;;;;;;;10.30;4.13;;;9.90;73.00;;;;;;5055999;28;20462;-78
2021/10/13 05:57:34;;;;;;;5.33;3.83;;;9.90;72.70;;;;;;5056395;28;20457;-79
2021/10/13 06:00:01;;;;;;;15.50;3.73;;;10.00;72.60;;;;;;5054602;28;20064;-78
2021/10/13 06:02:27;;;;;;;11.43;4.37;;;10.00;72.60;;;;;;5056068;28;20024;-79
2021/10/13 06:04:52;;;;;;;14.57;4.20;;;10.00;72.30;;;;;;5056225;28;20025;-79
2021/10/13 06:07:18;;;;;;;20.10;5.20;;;10.00;72.20;;;;;;5056297;28;20029;-79
2021/10/13 06:09:45;;;;;;;17.60;5.57;;;9.90;71.90;;;;;;5056078;28;20033;-81
2021/10/13 06:12:10;;;;;;;20.00;5.10;;;9.90;72.00;;;;;;5055249;28;20401;-78
2021/10/13 06:14:36;;;;;;;19.07;5.77;;;9.90;72.10;;;;;;5055540;28;20021;-78
2021/10/13 06:17:05;;;;;;;25.43;5.63;;;9.80;72.20;;;;;;5055766;28;20025;-79
2021/10/13 06:19:31;;;;;;;20.40;5.70;;;9.90;72.60;;;;;;5056084;28;20051;-78
2021/10/13 06:21:56;;;;;;;14.67;5.57;;;9.90;72.50;;;;;;5055982;28;20099;-79
2021/10/13 06:24:22;;;;;;;20.27;6.07;;;9.90;72.50;;;;;;5055725;28;20450;-79
2021/10/13 06:26:48;;;;;;;21.40;5.77;;;9.90;72.60;;;;;;5056154;28;20118;-79
2021/10/13 06:29:13;;;;;;;14.83;6.00;;;9.90;72.50;;;;;;5055695;28;20033;-80
2021/10/13 06:31:39;;;;;;;12.33;5.37;;;9.90;72.70;;;;;;5055802;28;20174;-81
2021/10/13 06:34:05;;;;;;;19.20;5.67;;;9.90;72.50;;;;;;5055759;28;20032;-79
2021/10/13 06:36:30;;;;;;;13.00;5.63;;;10.00;72.90;;;;;;5055746;28;20033;-78
2021/10/13 06:38:56;;;;;;;16.17;5.40;;;10.00;73.00;;;;;;5055525;28;20025;-79
2021/10/13 06:41:25;;;;;;;14.47;5.10;;;10.00;73.30;;;;;;5055672;28;20037;-79
2021/10/13 06:43:50;;;;;;;20.37;5.37;;;10.00;73.20;;;;;;5055560;28;20099;-79
2021/10/13 06:46:16;;;;;;;7.37;4.63;;;10.00;73.20;;;;;;5054790;28;20473;-78
2021/10/13 06:48:42;;;;;;;17.33;5.53;;;10.00;73.40;;;;;;5055680;28;20096;-79
2021/10/13 06:51:07;;;;;;;19.80;5.30;;;10.00;73.40;;;;;;5055242;28;20491;-78
2021/10/13 06:53:33;;;;;;;14.50;5.03;;;10.10;73.50;;;;;;5055463;28;20025;-78
2021/10/13 06:55:59;;;;;;;12.20;5.10;;;10.00;73.60;;;;;;5055575;28;20108;-77
2021/10/13 06:58:25;;;;;;;28.98;5.72;;;10.10;73.40;;;;;;5055251;28;20109;-79
2021/10/13 07:00:51;;;;;;;13.57;5.13;;;10.10;73.10;;;;;;5055173;28;20077;-79
2021/10/13 07:03:17;;;;;;;17.08;5.47;;;10.10;73.00;;;;;;5055512;28;20028;-79
2021/10/13 07:05:42;;;;;;;21.57;6.37;;;10.10;72.90;;;;;;5055479;28;20029;-79
2021/10/13 07:08:08;;;;;;;24.20;6.40;;;10.10;73.00;;;;;;5055291;28;20029;-75
2021/10/13 07:10:34;;;;;;;14.67;5.97;;;10.10;73.20;;;;;;5055221;28;20077;-80
2021/10/13 07:13:00;;;;;;;23.00;6.33;;;10.10;73.40;;;;;;5055205;28;20481;-79
2021/10/13 07:15:25;;;;;;;17.73;5.75;;;10.10;73.60;;;;;;5055096;28;20029;-79
2021/10/13 07:17:51;;;;;;;16.90;5.77;;;10.20;73.80;;;;;;5055046;28;20029;-79
2021/10/13 07:20:17;;;;;;;14.43;5.70;;;10.10;74.10;;;;;;5055040;28;20028;-79
2021/10/13 07:22:43;;;;;;;12.18;5.97;;;10.20;74.00;;;;;;5054876;28;20025;-78
2021/10/13 07:25:09;;;;;;;17.53;6.67;;;10.20;73.90;;;;;;5054715;28;20029;-78
2021/10/13 07:27:36;;;;;;;18.83;6.07;;;10.20;73.80;;;;;;5054409;28;20021;-76
2021/10/13 07:30:04;;;;;;;10.67;5.33;;;10.30;74.20;;;;;;5054543;28;20424;-78
2021/10/13 07:32:34;;;;;;;14.38;5.88;;;10.30;74.60;;;;;;5054371;28;20045;-76
2021/10/13 07:35:01;;;;;;;9.67;5.37;;;10.40;74.90;;;;;;5054557;28;20393;-79
2021/10/13 07:37:27;;;;;;;10.80;5.35;;;10.40;74.50;;;;;;5055687;28;20020;-75
2021/10/13 07:39:54;;;;;;;11.05;5.57;;;10.60;74.30;;;;;;5054936;28;20021;-79
2021/10/13 07:42:20;;;;;;;19.45;6.93;;;10.70;73.90;;;;;;5055158;28;20043;-78
2021/10/13 07:44:47;;;;;;;14.32;5.60;;;10.90;73.60;;;;;;5054260;28;20557;-78
2021/10/13 07:47:12;;;;;;;10.02;5.95;;;11.00;74.30;;;;;;5054417;28;20474;-75
2021/10/13 07:49:39;;;;;;;12.98;6.10;;;11.10;73.90;;;;;;5053821;28;20028;-79
2021/10/13 07:52:05;;;;;;;12.32;5.82;;;11.20;73.30;;;;;;5054320;28;20533;-77
2021/10/13 07:54:31;;;;;;;12.88;5.75;;;11.20;72.10;;;;;;5054285;28;20387;-78
2021/10/13 07:56:57;;;;;;;13.45;6.75;;;11.30;72.10;;;;;;5053779;28;20029;-78
2021/10/13 07:59:23;;;;;;;17.92;7.20;;;11.40;72.20;;;;;;5053515;28;20017;-77
2021/10/13 08:01:48;;;;;;;10.15;5.63;;;11.40;72.00;;;;;;5053668;28;20513;-74
2021/10/13 08:04:14;;;;;;;9.85;5.05;;;11.50;71.90;;;;;;5053880;28;20497;-70
2021/10/13 08:06:40;;;;;;;9.27;5.35;;;11.60;71.80;;;;;;5053634;28;20029;-78
2021/10/13 08:09:06;;;;;;;14.85;5.20;;;11.60;71.40;;;;;;5053586;28;20067;-78
2021/10/13 08:11:31;;;;;;;11.90;5.75;;;11.70;70.90;;;;;;5053707;28;20499;-77
2021/10/13 08:13:58;;;;;;;11.77;5.35;;;11.70;70.60;;;;;;5053776;28;20386;-77
2021/10/13 08:16:24;;;;;;;22.30;6.15;;;11.80;70.70;;;;;;5053556;28;20112;-78
2021/10/13 08:18:50;;;;;;;25.92;5.95;;;11.90;70.80;;;;;;5053589;28;20226;-79
2021/10/13 08:21:15;;;;;;;18.95;5.72;;;11.90;70.80;;;;;;5051991;28;20036;-79
2021/10/13 08:23:41;;;;;;;22.75;6.78;;;12.00;70.80;;;;;;5053674;28;20049;-78
2021/10/13 08:26:08;;;;;;;15.88;6.05;;;12.10;70.60;;;;;;5053476;28;20108;-79
2021/10/13 08:28:35;;;;;;;20.65;5.93;;;12.20;70.90;;;;;;5052389;28;20491;-79
2021/10/13 08:31:01;;;;;;;17.23;5.68;;;12.30;70.80;;;;;;5053325;28;20033;-79
2021/10/13 08:33:27;;;;;;;15.80;4.82;;;12.40;70.70;;;;;;5053335;28;20457;-73
2021/10/13 08:35:53;;;;;;;16.23;4.85;;;12.50;70.30;;;;;;5052054;28;20172;-79
2021/10/13 08:38:19;;;;;;;15.30;3.78;;;12.60;69.50;;;;;;5052198;28;20436;-78
2021/10/13 08:40:44;;;;;;;10.25;3.35;;;12.70;68.80;;;;;;5052498;28;20033;-78
2021/10/13 08:43:10;;;;;;;6.85;3.58;;;12.80;67.70;;;;;;5052688;28;20080;-76
2021/10/13 08:45:39;;;;;;;5.13;3.40;;;12.90;67.10;;;;;;5053040;28;20480;-78
2021/10/13 08:48:06;;;;;;;4.18;2.67;;;13.10;66.30;;;;;;5053099;28;20052;-78
2021/10/13 08:50:35;;;;;;;4.68;2.90;;;13.20;65.40;;;;;;5053223;28;20035;-79
2021/10/13 08:53:08;;;;;;;8.05;3.13;;;13.30;64.40;;;;;;5053227;28;20469;-79
2021/10/13 08:55:34;;;;;;;;;;;13.40;64.00;;;;;;5053473;28;20480;-76
2021/10/13 08:58:13;;;;;;;4.53;3.15;;;13.50;63.70;;;;;;5053105;28;20004;-77
2021/10/13 09:00:40;;;;;;;5.47;2.85;;;13.60;63.40;;;;;;5052918;28;20060;-79
2021/10/13 09:03:06;;;;;;;7.85;3.55;;;13.70;63.30;;;;;;5053342;28;20032;-78
2021/10/13 09:05:32;;;;;;;5.07;3.17;;;13.80;63.20;;;;;;5052402;28;20025;-79
2021/10/13 09:07:58;;;;;;;8.65;2.45;;;13.90;63.10;;;;;;5051184;28;20025;-81
2021/10/13 09:10:37;;;;;;;4.95;2.20;;;14.00;62.60;;;;;;5050836;28;20057;-77
2021/10/13 09:13:10;;;;;;;5.90;2.85;;;14.10;61.40;;;;;;5052516;28;20051;-80
2021/10/13 09:18:39;;;;;;;2.30;1.70;;;14.30;61.50;;;;;;5052915;28;20368;-80
2021/10/13 09:21:04;;;;;;;2.75;1.40;;;14.40;59.40;;;;;;5052562;28;20029;-80
2021/10/13 09:23:30;;;;;;;4.78;1.92;;;14.50;58.30;;;;;;5052626;28;20032;-82
2021/10/13 09:26:10;;;;;;;3.53;1.40;;;14.60;58.40;;;;;;5052868;28;20032;-79
2021/10/13 09:28:37;;;;;;;2.00;0.98;;;14.70;57.30;;;;;;5053039;28;20112;-79
2021/10/13 09:31:25;;;;;;;1.77;0.80;;;14.70;55.00;;;;;;5052953;28;20058;-79
2021/10/13 09:34:00;;;;;;;1.00;0.70;;;14.80;53.90;;;;;;5052532;28;20052;-81
2021/10/13 09:36:51;;;;;;;1.00;0.60;;;14.90;53.10;;;;;;5052075;28;20032;-80
2021/10/13 09:39:18;;;;;;;1.05;0.70;;;15.00;53.50;;;;;;5051045;28;20021;-78
2021/10/13 09:41:57;;;;;;;1.75;0.95;;;15.00;52.70;;;;;;5051565;28;20100;-82
2021/10/13 09:44:23;;;;;;;6.75;0.73;;;15.10;52.20;;;;;;5052833;28;20366;-80
2021/10/13 09:46:49;;;;;;;2.00;0.80;;;15.10;52.60;;;;;;5052573;28;20079;-81
2021/10/13 09:49:26;;;;;;;2.80;0.90;;;15.20;51.50;;;;;;5052481;28;20067;-80
2021/10/13 09:52:03;;;;;;;3.72;0.95;;;15.30;51.90;;;;;;5052350;28;20371;-80
2021/10/13 09:54:29;;;;;;;8.90;1.60;;;15.40;51.80;;;;;;5052255;28;20021;-79
2021/10/13 09:56:55;;;;;;;2.50;0.88;;;15.50;50.80;;;;;;5052685;28;20039;-80
2021/10/13 09:59:22;;;;;;;1.20;0.77;;;15.60;50.80;;;;;;5052186;28;20074;-78
2021/10/13 10:01:55;;;;;;;2.05;1.52;;;15.70;50.00;;;;;;5052374;28;20058;-78
2021/10/13 10:04:26;;;;;;;1.60;0.80;;;15.70;50.10;;;;;;5052097;28;20029;-80
2021/10/13 10:06:57;;;;;;;1.00;0.70;;;15.80;49.40;;;;;;5052432;28;20021;-79
2021/10/13 10:09:25;;;;;;;2.63;1.00;;;15.90;49.10;;;;;;5052583;28;20124;-82
2021/10/13 10:12:08;;;;;;;1.77;0.90;;;15.90;49.40;;;;;;5052399;28;20481;-77
2021/10/13 10:14:37;;;;;;;5.60;0.80;;;16.00;49.40;;;;;;5052569;28;20052;-79
2021/10/13 10:17:05;;;;;;;1.33;0.80;;;16.00;49.80;;;;;;5052383;28;20040;-78
2021/10/13 10:19:51;;;;;;;1.90;0.80;;;16.10;49.60;;;;;;5052144;28;20044;-79
2021/10/13 10:22:18;;;;;;;4.00;1.00;;;16.10;48.60;;;;;;5055895;28;20036;-79
2021/10/13 10:24:51;;;;;;;1.00;0.88;;;16.20;48.50;;;;;;5055871;28;20025;-78
2021/10/13 10:27:30;;;;;;;;;;;16.30;48.30;;;;;;5056303;28;20036;-78
2021/10/13 10:30:07;;;;;;;1.00;0.70;;;16.20;47.70;;;;;;5055650;28;19905;-79
2021/10/13 10:32:33;;;;;;;1.85;0.80;;;16.30;47.20;;;;;;5055808;28;20044;-79
2021/10/13 10:35:11;;;;;;;2.13;0.90;;;16.30;48.00;;;;;;5056101;28;20052;-79
2021/10/13 10:37:48;;;;;;;7.05;1.00;;;16.40;48.00;;;;;;5055765;28;20059;-79
2021/10/13 10:40:30;;;;;;;1.25;0.70;;;16.40;46.80;;;;;;5055484;28;20029;-79
2021/10/13 10:43:06;;;;;;;1.08;0.80;;;16.40;46.60;;;;;;5055562;28;20039;-78
2021/10/13 10:45:38;;;;;;;1.27;0.80;;;16.50;47.80;;;;;;5055638;28;20029;-78
2021/10/13 10:48:06;;;;;;;1.20;0.60;;;16.50;46.90;;;;;;5055531;28;20108;-78
2021/10/13 10:50:43;;;;;;;0.93;0.73;;;16.60;47.90;;;;;;5055497;28;20098;-78
2021/10/13 10:53:11;;;;;;;1.85;0.60;;;16.70;47.90;;;;;;5052755;28;20540;-78
2021/10/13 10:55:38;;;;;;;2.05;0.88;;;16.80;46.20;;;;;;5035229;28;20033;-78
2021/10/13 10:58:19;;;;;;;3.45;0.90;;;16.90;45.90;;;;;;5033460;28;20053;-79
2021/10/13 11:00:56;;;;;;;1.30;0.73;;;17.00;46.70;;;;;;5032940;28;20045;-78
2021/10/13 11:03:25;;;;;;;1.40;1.00;;;17.10;45.90;;;;;;5033593;28;20021;-79
2021/10/13 11:05:54;;;;;;;2.33;0.90;;;17.10;45.40;;;;;;5035544;28;20419;-80
2021/10/13 11:08:20;;;;;;;1.98;0.57;;;17.20;45.80;;;;;;5034950;28;20056;-79
2021/10/13 11:10:45;;;;;;;3.63;0.80;;;17.30;46.00;;;;;;5033732;28;20029;-73
2021/10/13 11:13:11;;;;;;;1.98;0.70;;;17.30;45.10;;;;;;5035267;28;20036;-86
2021/10/13 11:15:38;;;;;;;5.30;1.13;;;17.30;44.00;;;;;;5035060;28;20429;-82
2021/10/13 11:18:15;;;;;;;1.15;0.80;;;17.40;44.90;;;;;;5035258;28;20512;-83
2021/10/13 11:20:42;;;;;;;2.47;0.77;;;17.40;44.90;;;;;;5035002;28;20500;-81
2021/10/13 11:23:09;;;;;;;1.40;0.82;;;17.40;44.30;;;;;;5035182;28;20037;-80
2021/10/13 11:25:35;;;;;;;1.23;0.75;;;17.40;43.50;;;;;;5035014;28;20060;-75
2021/10/13 11:28:01;;;;;;;3.50;0.95;;;17.40;44.40;;;;;;5034685;28;20017;-76
2021/10/13 11:30:29;;;;;;;3.42;1.25;;;17.40;44.80;;;;;;5034276;28;20025;-78
2021/10/13 11:32:56;;;;;;;2.47;1.10;;;17.50;44.80;;;;;;5033997;28;20041;-84
2021/10/13 11:35:21;;;;;;;5.10;1.00;;;17.50;44.20;;;;;;5034569;28;20423;-79
2021/10/13 11:37:52;;;;;;;1.20;0.90;;;17.60;44.50;;;;;;5034259;28;20160;-78
2021/10/13 11:40:20;;;;;;;2.40;1.08;;;17.60;43.90;;;;;;5034137;28;20043;-78
2021/10/13 11:42:46;;;;;;;2.10;0.98;;;17.60;44.60;;;;;;5033472;28;20026;-75
2021/10/13 11:45:20;;;;;;;2.75;0.90;;;17.70;43.30;;;;;;5034155;28;20108;-77
2021/10/13 11:47:45;;;;;;;1.63;0.82;;;17.70;43.30;;;;;;5034285;28;20025;-76
2021/10/13 11:50:14;;;;;;;3.97;0.82;;;17.80;43.20;;;;;;5033986;28;20037;-76
2021/10/13 11:52:43;;;;;;;4.00;0.95;;;17.80;43.60;;;;;;5034134;28;20497;-78
2021/10/13 11:55:12;;;;;;;1.70;1.00;;;17.90;45.00;;;;;;5034287;28;20096;-75
2021/10/13 11:57:40;;;;;;;1.23;0.90;;;18.00;43.70;;;;;;5034005;28;20033;-74
2021/10/13 12:00:19;;;;;;;2.03;1.33;;;18.00;43.30;;;;;;5033612;28;20076;-72
2021/10/13 12:03:05;;;;;;;1.50;1.10;;;18.10;44.20;;;;;;5033377;28;20462;-77
2021/10/13 12:05:54;;;;;;;1.63;1.20;;;18.10;42.60;;;;;;5034167;28;20022;-75
2021/10/13 12:08:29;;;;;;;3.50;1.40;;;18.20;43.10;;;;;;5034128;28;20035;-77
2021/10/13 12:11:13;;;;;;;1.50;1.05;;;18.20;43.10;;;;;;5033608;28;20107;-79
2021/10/13 12:13:41;;;;;;;3.05;0.98;;;18.30;43.40;;;;;;5033246;28;20034;-75
2021/10/13 12:16:13;;;;;;;3.95;0.95;;;18.30;43.50;;;;;;5033522;28;20359;-76
2021/10/13 12:18:45;;;;;;;3.20;1.00;;;18.30;43.10;;;;;;5034101;28;20036;-76
2021/10/13 12:21:14;;;;;;;3.85;1.13;;;18.40;43.60;;;;;;5033924;28;20034;-78
2021/10/13 12:24:04;;;;;;;4.18;1.23;;;18.30;41.40;;;;;;5034010;28;20034;-81
2021/10/13 12:26:42;;;;;;;2.90;1.10;;;18.20;42.00;;;;;;5034058;28;20022;-87
2021/10/13 12:29:11;;;;;;;1.70;1.00;;;18.00;42.10;;;;;;5033912;28;20438;-82
2021/10/13 12:31:38;;;;;;;1.40;1.10;;;17.90;42.10;;;;;;5033342;28;20033;-73
2021/10/13 12:34:05;;;;;;;4.93;1.20;;;17.70;41.90;;;;;;5033665;28;20113;-81
2021/10/13 12:36:36;;;;;;;3.25;1.35;;;17.60;42.80;;;;;;5033687;28;20032;-81
2021/10/13 12:39:10;;;;;;;2.20;1.23;;;17.50;43.20;;;;;;5033585;28;20029;-82
2021/10/13 12:41:38;;;;;;;11.98;1.40;;;17.40;43.50;;;;;;5033640;28;20022;-75
2021/10/13 12:44:17;;;;;;;4.38;1.35;;;17.30;42.90;;;;;;5032421;28;20029;-75
2021/10/13 12:47:04;;;;;;;4.28;1.17;;;17.20;43.10;;;;;;5033112;28;20053;-76
2021/10/13 12:49:43;;;;;;;4.57;1.40;;;17.10;43.20;;;;;;5033195;28;20390;-76
2021/10/13 12:52:13;;;;;;;1.67;1.10;;;17.00;43.40;;;;;;5033458;28;20389;-75
2021/10/13 12:54:42;;;;;;;5.40;1.38;;;16.90;43.90;;;;;;5033222;28;20029;-76
2021/10/13 12:57:10;;;;;;;2.40;1.20;;;17.00;45.20;;;;;;5033093;28;20025;-75
2021/10/13 12:59:36;;;;;;;1.73;1.33;;;17.10;44.30;;;;;;5032746;28;20044;-75
2021/10/13 13:02:03;;;;;;;1.52;1.10;;;17.10;44.10;;;;;;5032971;28;20053;-75